createdAt,value
2022-08-05T00:01:36.124Z,99787.66
2022-08-05T00:04:19.555Z,99795.81
2022-08-05T00:06:51.709Z,99789.56
2022-08-05T00:09:20.248Z,99789.78
2022-08-05T00:11:55.549Z,99789.88
2022-08-05T00:14:29.037Z,99792.59
2022-08-05T00:16:57.814Z,99791.84
2022-08-05T00:19:33.459Z,99784.75
2022-08-05T00:22:08.238Z,99786.72
2022-08-05T00:24:42.452Z,99778.81
2022-08-05T00:27:16.618Z,99784.16
2022-08-05T00:29:44.918Z,99785.03
2022-08-05T00:32:15.363Z,99781.34
2022-08-05T00:35:03.701Z,99787.50
2022-08-05T00:37:51.267Z,99783.00
2022-08-05T00:40:27.506Z,99778.56
2022-08-05T00:43:03.031Z,99782.06
2022-08-05T00:45:42.756Z,99782.06
2022-08-05T00:48:27.670Z,99783.00
2022-08-05T00:50:58.914Z,99772.34
2022-08-05T00:54:00.330Z,99773.25
2022-08-05T00:56:17.205Z,99767.97
2022-08-05T00:58:45.311Z,99765.28
2022-08-05T01:01:15.408Z,99776.06
2022-08-05T01:03:52.648Z,99777.94
2022-08-05T01:06:20.299Z,99770.81
2022-08-05T01:09:00.561Z,99772.56
2022-08-05T01:11:37.829Z,99762.81
2022-08-05T01:14:35.470Z,99766.50
2022-08-05T01:17:09.733Z,99774.53
2022-08-05T01:20:15.429Z,99774.66
2022-08-05T01:23:15.136Z,99770.28
2022-08-05T01:26:28.798Z,99766.00
2022-08-05T01:29:05.313Z,99763.34
2022-08-05T01:32:00.566Z,99765.13
2022-08-05T01:35:10.956Z,99765.16
2022-08-05T01:37:59.342Z,99768.91
2022-08-05T01:40:30.845Z,99770.66
2022-08-05T01:43:02.614Z,99774.28
2022-08-05T01:45:34.729Z,99770.72
2022-08-05T01:48:11.065Z,99773.38
2022-08-05T01:50:41.158Z,99774.25
2022-08-05T01:53:54.889Z,99761.75
2022-08-05T01:56:13.965Z,99766.22
2022-08-05T01:59:12.273Z,99764.44
2022-08-05T02:01:43.018Z,99761.75
2022-08-05T02:04:11.976Z,99764.47
2022-08-05T02:06:39.854Z,99770.81
2022-08-05T02:09:08.439Z,99772.63
2022-08-05T02:11:52.605Z,99768.22
2022-08-05T02:14:39.496Z,99765.63
2022-08-05T02:18:31.993Z,99765.69
2022-08-05T02:20:26.320Z,99761.25
2022-08-05T02:23:08.712Z,99757.69
2022-08-05T02:25:50.220Z,99752.41
2022-08-05T02:28:28.483Z,99756.84
2022-08-05T02:31:08.286Z,99758.72
2022-08-05T02:33:57.495Z,99757.81
2022-08-05T02:36:31.629Z,99760.47
2022-08-05T02:39:02.242Z,99757.84
2022-08-05T02:41:36.450Z,99754.28
2022-08-05T02:44:21.992Z,99751.63
2022-08-05T02:46:58.487Z,99753.44
2022-08-05T02:49:35.797Z,99753.47
2022-08-05T02:52:29.435Z,99755.25
2022-08-05T02:55:02.078Z,99748.13
2022-08-05T02:58:10.464Z,99753.50
2022-08-05T03:00:24.784Z,99750.91
2022-08-05T03:02:53.719Z,99742.06
2022-08-05T03:05:21.951Z,99747.38
2022-08-05T03:08:11.304Z,99747.47
2022-08-05T03:10:39.002Z,99741.22
2022-08-05T03:13:17.704Z,99742.25
2022-08-05T03:15:47.348Z,99743.25
2022-08-05T03:18:17.277Z,99745.09
2022-08-05T03:20:48.736Z,99744.22
2022-08-05T03:23:16.765Z,99746.94
2022-08-05T03:26:03.623Z,99741.69
2022-08-05T03:28:31.902Z,99740.00
2022-08-05T03:31:04.164Z,99737.38
2022-08-05T03:33:51.333Z,99735.66
2022-08-05T03:36:30.293Z,99738.34
2022-08-05T03:38:58.678Z,99741.94
2022-08-05T03:41:26.065Z,99736.56
2022-08-05T03:44:11.389Z,99732.09
2022-08-05T03:46:39.375Z,99735.66
2022-08-05T03:49:06.860Z,99728.53
2022-08-05T03:52:37.588Z,99733.13
2022-08-05T03:55:51.765Z,99735.06
2022-08-05T03:57:48.806Z,99736.09
2022-08-05T04:00:17.269Z,99739.63
2022-08-05T04:02:57.719Z,99737.72
2022-08-05T04:05:34.703Z,99735.09
2022-08-05T04:08:14.633Z,99736.09
2022-08-05T04:10:59.358Z,99735.16
2022-08-05T04:13:51.035Z,99741.44
2022-08-05T04:16:16.594Z,99734.31
2022-08-05T04:18:54.768Z,99734.28
2022-08-05T04:22:10.360Z,99743.13
2022-08-05T04:24:18.672Z,99737.75
2022-08-05T04:26:47.119Z,99733.19
2022-08-05T04:29:14.426Z,99737.56
2022-08-05T04:31:42.993Z,99730.38
2022-08-05T04:34:32.968Z,99736.56
2022-08-05T04:36:57.603Z,99746.28
2022-08-05T04:39:24.971Z,99739.13
2022-08-05T04:41:55.314Z,99739.09
2022-08-05T04:44:29.256Z,99740.03
2022-08-05T04:46:59.774Z,99735.59
2022-08-05T04:49:38.522Z,99735.59
2022-08-05T04:52:15.982Z,99737.38
2022-08-05T04:54:43.262Z,99739.19
2022-08-05T04:57:10.665Z,99745.47
2022-08-05T04:59:40.489Z,99745.50
2022-08-05T05:02:36.496Z,99741.94
2022-08-05T05:05:02.771Z,99748.16
2022-08-05T05:07:52.777Z,99756.19
2022-08-05T05:10:20.333Z,99748.97
2022-08-05T05:12:47.621Z,99756.06
2022-08-05T05:15:57.576Z,99761.31
2022-08-05T05:18:06.526Z,99761.19
2022-08-05T05:20:36.233Z,99760.09
2022-08-05T05:23:08.451Z,99761.75
2022-08-05T05:25:47.843Z,99759.78
2022-08-05T05:28:15.195Z,99763.25
2022-08-05T05:30:43.033Z,99764.19
2022-08-05T05:33:17.720Z,99758.69
2022-08-05T05:35:50.841Z,99767.53
2022-08-05T05:38:26.839Z,99771.00
2022-08-05T05:40:56.883Z,99771.78
2022-08-05T05:43:56.872Z,99775.25
2022-08-05T05:46:15.624Z,99776.88
2022-08-05T05:48:44.626Z,99782.88
2022-08-05T05:51:27.871Z,99775.69
2022-08-05T05:53:59.501Z,99782.75
2022-08-05T05:56:32.407Z,99780.06
2022-08-05T05:59:08.215Z,99783.59
2022-08-05T06:01:40.704Z,99779.91
2022-08-05T06:04:25.044Z,99774.38
2022-08-05T06:06:52.498Z,99775.16
2022-08-05T06:09:27.427Z,99774.94
2022-08-05T06:12:09.534Z,99773.84
2022-08-05T06:14:37.281Z,99780.88
2022-08-05T06:17:24.365Z,99784.38
2022-08-05T06:19:56.733Z,99791.41
2022-08-05T06:22:34.365Z,99787.66
2022-08-05T06:25:25.281Z,99782.19
2022-08-05T06:28:10.999Z,99790.78
2022-08-05T06:30:44.174Z,99785.22
2022-08-05T06:33:11.450Z,99786.03
2022-08-05T06:36:08.209Z,99785.03
2022-08-05T06:38:36.558Z,99789.25
2022-08-05T06:41:07.856Z,99789.97
2022-08-05T06:43:58.581Z,99795.31
2022-08-05T06:46:29.898Z,99795.31
2022-08-05T06:49:01.201Z,99805.88
2022-08-05T06:51:30.716Z,99801.06
2022-08-05T06:54:01.833Z,99797.97
2022-08-05T06:56:33.416Z,99797.75
2022-08-05T06:59:08.386Z,99801.38
2022-08-05T07:01:37.202Z,99799.81
2022-08-05T07:04:08.261Z,99800.31
2022-08-05T07:06:35.600Z,99797.25
2022-08-05T07:09:04.772Z,99794.63
2022-08-05T07:11:36.887Z,99799.47
2022-08-05T07:14:29.694Z,99801.72
2022-08-05T07:17:58.409Z,99795.22
2022-08-05T07:20:32.190Z,99802.47
2022-08-05T07:22:38.358Z,99801.28
2022-08-05T07:25:23.803Z,99806.53
2022-08-05T07:28:02.264Z,99808.13
2022-08-05T07:30:38.893Z,99806.84
2022-08-05T07:33:16.378Z,99804.91
2022-08-05T07:36:05.388Z,99804.69
2022-08-05T07:38:43.442Z,99796.66
2022-08-05T07:42:12.864Z,99797.53
2022-08-05T07:44:18.398Z,99798.69
2022-08-05T07:46:49.740Z,99799.09
2022-08-05T07:49:19.077Z,99787.56
2022-08-05T07:51:53.591Z,99781.97
2022-08-05T07:54:30.239Z,99788.09
2022-08-05T07:57:22.456Z,99785.19
2022-08-05T07:59:48.782Z,99784.75
2022-08-05T08:02:17.836Z,99783.59
2022-08-05T08:04:47.429Z,99778.97
2022-08-05T08:07:15.412Z,99779.03
2022-08-05T08:09:43.526Z,99778.88
2022-08-05T08:12:32.004Z,99780.84
2022-08-05T08:15:02.422Z,99776.81
2022-08-05T08:17:32.830Z,99779.41
2022-08-05T08:20:43.615Z,99783.72
2022-08-05T08:22:56.978Z,99786.25
2022-08-05T08:25:34.595Z,99785.84
2022-08-05T08:28:18.945Z,99791.53
2022-08-05T08:30:59.485Z,99786.06
2022-08-05T08:33:28.281Z,99789.06
2022-08-05T08:36:18.510Z,99785.56
2022-08-05T08:38:42.842Z,99790.38
2022-08-05T08:41:22.313Z,99785.88
2022-08-05T08:45:19.287Z,99781.22
2022-08-05T08:46:45.353Z,99777.19
2022-08-05T08:50:22.826Z,99780.41
2022-08-05T08:52:21.745Z,99775.09
2022-08-05T08:54:55.287Z,99783.81
2022-08-05T08:57:42.130Z,99776.50
2022-08-05T09:00:15.740Z,99783.41
2022-08-05T09:02:46.761Z,99781.66
2022-08-05T09:05:17.399Z,99781.56
2022-08-05T09:07:57.645Z,99776.69
2022-08-05T09:10:26.980Z,99771.81
2022-08-05T09:13:04.859Z,99778.41
2022-08-05T09:15:36.766Z,99774.50
2022-08-05T09:18:09.024Z,99774.38
2022-08-05T09:20:38.386Z,99776.03
2022-08-05T09:23:21.940Z,99768.63
2022-08-05T09:26:01.630Z,99763.34
2022-08-05T09:28:33.506Z,99766.34
2022-08-05T09:31:43.286Z,99758.25
2022-08-05T09:34:10.366Z,99761.25
2022-08-05T09:36:55.667Z,99760.13
2022-08-05T09:39:39.563Z,99757.16
2022-08-05T09:42:23.919Z,99754.78
2022-08-05T09:45:03.241Z,99755.34
2022-08-05T09:47:47.984Z,99744.03
2022-08-05T09:50:38.843Z,99744.59
2022-08-05T09:53:08.909Z,99749.38
2022-08-05T09:55:57.384Z,99738.88
2022-08-05T09:58:29.149Z,99729.38
2022-08-05T10:01:14.895Z,99733.72
2022-08-05T10:04:34.861Z,99726.44
2022-08-05T10:07:19.505Z,99724.97
2022-08-05T10:10:04.308Z,99721.38
2022-08-05T10:12:57.508Z,99721.44
2022-08-05T10:15:34.536Z,99717.22
2022-08-05T10:18:22.373Z,99716.16
2022-08-05T10:21:11.960Z,99708.16
2022-08-05T10:23:59.987Z,99713.97
2022-08-05T10:26:31.589Z,99716.78
2022-08-05T10:29:00.304Z,99711.22
2022-08-05T10:32:53.843Z,99711.72
2022-08-05T10:34:15.102Z,99702.47
2022-08-05T10:36:45.161Z,99707.63
2022-08-05T10:40:03.888Z,99702.50
2022-08-05T10:42:33.310Z,99697.81
2022-08-05T10:45:20.825Z,99704.91
2022-08-05T10:48:29.835Z,99696.91
2022-08-05T10:51:21.769Z,99700.41
2022-08-05T10:53:58.512Z,99700.41
2022-08-05T10:56:31.391Z,99691.22
2022-08-05T10:58:58.662Z,99688.19
2022-08-05T11:01:54.487Z,99687.81
2022-08-05T11:04:31.023Z,99683.22
2022-08-05T11:07:01.680Z,99683.44
2022-08-05T11:10:03.816Z,99687.25
2022-08-05T11:12:38.162Z,99694.22
2022-08-05T11:16:01.172Z,99687.81
2022-08-05T11:18:32.437Z,99680.91
2022-08-05T11:21:02.010Z,99684.72
2022-08-05T11:24:05.601Z,99675.56
2022-08-05T11:26:38.647Z,99678.03
2022-08-05T11:29:13.752Z,99674.25
2022-08-05T11:31:54.212Z,99678.38
2022-08-05T11:34:47.646Z,99663.22
2022-08-05T11:38:30.467Z,99665.19
2022-08-05T11:41:34.679Z,99662.97
2022-08-05T11:44:08.076Z,99657.78
2022-08-05T11:47:09.467Z,99650.97
2022-08-05T11:49:33.952Z,99651.91
2022-08-05T11:52:02.074Z,99645.63
2022-08-05T11:54:40.309Z,99637.47
2022-08-05T11:57:25.242Z,99642.88
2022-08-05T11:59:55.095Z,99627.41
2022-08-05T12:02:33.013Z,99636.31
2022-08-05T12:05:08.088Z,99632.56
2022-08-05T12:08:08.133Z,99627.75
2022-08-05T12:10:45.133Z,99626.50
2022-08-05T12:13:28.058Z,99624.94
2022-08-05T12:16:15.384Z,99617.03
2022-08-05T12:18:48.928Z,99615.03
2022-08-05T12:21:32.007Z,99615.31
2022-08-05T12:24:21.302Z,99599.34
2022-08-05T12:26:54.127Z,99607.38
2022-08-05T12:29:24.212Z,99610.22
2022-08-05T12:32:02.040Z,99600.94
2022-08-05T12:34:36.867Z,99594.47
2022-08-05T12:37:16.923Z,99592.56
2022-08-05T12:39:48.694Z,99580.91
2022-08-05T12:42:21.367Z,99575.00
2022-08-05T12:44:52.774Z,99570.34
2022-08-05T12:47:31.059Z,99571.59
2022-08-05T12:50:03.870Z,99568.47
2022-08-05T12:52:39.246Z,99566.41
2022-08-05T12:55:25.334Z,99559.75
2022-08-05T12:58:51.005Z,99568.50
2022-08-05T13:02:01.453Z,99552.09
2022-08-05T13:03:41.968Z,99549.03
2022-08-05T13:06:20.018Z,99546.16
2022-08-05T13:08:52.316Z,99547.34
2022-08-05T13:12:01.275Z,99540.81
2022-08-05T13:14:36.107Z,99535.00
2022-08-05T13:17:31.543Z,99535.16
2022-08-05T13:20:12.504Z,99528.28
2022-08-05T13:22:50.194Z,99536.63
2022-08-05T13:25:22.179Z,99526.59
2022-08-05T13:28:07.729Z,99529.56
2022-08-05T13:30:38.922Z,99527.25
2022-08-05T13:33:06.554Z,99521.69
2022-08-05T13:35:47.624Z,99526.34
2022-08-05T13:38:30.669Z,99523.84
2022-08-05T13:41:03.764Z,99524.59
2022-08-05T13:43:44.650Z,99523.63
2022-08-05T13:46:30.655Z,99529.28
2022-08-05T13:49:10.131Z,99521.59
2022-08-05T13:51:46.558Z,99521.16
2022-08-05T13:54:17.102Z,99525.09
2022-08-05T13:56:51.115Z,99519.28
2022-08-05T13:59:24.564Z,99523.00
2022-08-05T14:02:00.022Z,99517.84
2022-08-05T14:04:54.984Z,99531.09
2022-08-05T14:08:01.223Z,99530.91
2022-08-05T14:10:30.670Z,99530.13
2022-08-05T14:12:59.401Z,99526.00
2022-08-05T14:16:09.128Z,99516.63
2022-08-05T14:18:18.641Z,99517.19
2022-08-05T14:20:54.505Z,99514.91
2022-08-05T14:23:24.687Z,99519.84
2022-08-05T14:25:58.991Z,99514.69
2022-08-05T14:28:28.692Z,99520.88
2022-08-05T14:31:00.991Z,99508.19
2022-08-05T14:33:56.387Z,99497.75
2022-08-05T14:36:20.481Z,99497.00
2022-08-05T14:38:50.673Z,99499.41
2022-08-05T14:41:18.558Z,99495.34
2022-08-05T14:44:01.473Z,99490.59
2022-08-05T14:46:35.182Z,99475.66
2022-08-05T14:49:07.492Z,99472.47
2022-08-05T14:51:42.497Z,99472.66
2022-08-05T14:54:27.501Z,99478.38
2022-08-05T14:56:58.910Z,99479.63
2022-08-05T14:59:29.621Z,99472.06
2022-08-05T15:02:15.040Z,99456.53
2022-08-05T15:04:43.788Z,99469.88
2022-08-05T15:08:06.460Z,99454.63
2022-08-05T15:10:01.365Z,99449.34
2022-08-05T15:12:51.331Z,99463.47
2022-08-05T15:15:17.926Z,99449.75
2022-08-05T15:18:06.027Z,99440.91
2022-08-05T15:20:33.829Z,99445.28
2022-08-05T15:23:11.081Z,99439.69
2022-08-05T15:25:52.839Z,99439.84
2022-08-05T15:28:27.033Z,99445.13
2022-08-05T15:30:55.521Z,99437.78
2022-08-05T15:34:05.658Z,99433.03
2022-08-05T15:36:16.803Z,99445.03
2022-08-05T15:41:01.992Z,99439.63
2022-08-05T15:41:56.455Z,99437.31
2022-08-05T15:44:30.278Z,99447.56
2022-08-05T15:47:01.509Z,99440.47
2022-08-05T15:49:48.216Z,99443.56
2022-08-05T15:52:52.045Z,99444.41
2022-08-05T15:55:16.012Z,99449.28
2022-08-05T15:57:45.109Z,99447.78
2022-08-05T16:00:13.699Z,99455.69
2022-08-05T16:02:44.592Z,99455.53
2022-08-05T16:05:12.545Z,99448.50
2022-08-05T16:07:46.205Z,99449.94
2022-08-05T16:10:14.091Z,99447.41
2022-08-05T16:12:42.113Z,99450.97
2022-08-05T16:15:10.420Z,99443.41
2022-08-05T16:17:49.727Z,99446.72
2022-08-05T16:20:26.243Z,99444.59
2022-08-05T16:22:55.468Z,99448.09
2022-08-05T16:25:32.292Z,99435.03
2022-08-05T16:28:06.004Z,99430.34
2022-08-05T16:30:36.205Z,99434.84
2022-08-05T16:33:03.997Z,99441.75
2022-08-05T16:35:32.414Z,99439.44
2022-08-05T16:38:24.585Z,99443.47
2022-08-05T16:40:55.172Z,99439.28
2022-08-05T16:43:32.070Z,99440.88
2022-08-05T16:46:12.708Z,99447.44
2022-08-05T16:48:50.799Z,99433.94
2022-08-05T16:51:18.813Z,99431.28
2022-08-05T16:54:04.738Z,99427.78
2022-08-05T16:56:36.274Z,99433.13
2022-08-05T16:59:09.079Z,99432.84
2022-08-05T17:01:53.283Z,99437.81
2022-08-05T17:04:28.234Z,99433.81
2022-08-05T17:07:03.418Z,99425.03
2022-08-05T17:09:55.988Z,99419.78
2022-08-05T17:12:51.916Z,99415.16
2022-08-05T17:15:15.793Z,99416.31
2022-08-05T17:17:54.448Z,99416.31
2022-08-05T17:20:22.554Z,99408.81
2022-08-05T17:22:55.331Z,99406.38
2022-08-05T17:25:33.884Z,99401.16
2022-08-05T17:28:09.110Z,99407.34
2022-08-05T17:30:42.392Z,99397.91
2022-08-05T17:33:17.867Z,99394.44
2022-08-05T17:36:08.111Z,99391.81
2022-08-05T17:38:34.408Z,99397.53
2022-08-05T17:41:02.369Z,99401.34
2022-08-05T17:43:50.562Z,99400.16
2022-08-05T17:46:18.281Z,99400.16
2022-08-05T17:48:47.690Z,99405.56
2022-08-05T17:51:21.784Z,99413.06
2022-08-05T17:53:50.898Z,99415.16
2022-08-05T17:56:22.772Z,99412.94
2022-08-05T17:58:51.146Z,99412.59
2022-08-05T18:01:19.841Z,99409.41
2022-08-05T18:03:58.494Z,99407.03
2022-08-05T18:06:31.633Z,99408.88
2022-08-05T18:08:59.679Z,99398.28
2022-08-05T18:11:33.003Z,99401.09
2022-08-05T18:14:04.275Z,99403.09
2022-08-05T18:16:47.038Z,99400.91
2022-08-05T18:19:22.879Z,99400.47
2022-08-05T18:22:09.354Z,99395.22
2022-08-05T18:24:39.955Z,99398.78
2022-08-05T18:27:12.604Z,99405.38
2022-08-05T18:29:53.528Z,99403.53
2022-08-05T18:32:28.179Z,99407.69
2022-08-05T18:34:56.872Z,99412.22
2022-08-05T18:37:34.065Z,99415.78
2022-08-05T18:40:34.546Z,99418.25
2022-08-05T18:42:56.961Z,99420.78
2022-08-05T18:45:24.816Z,99422.59
2022-08-05T18:47:56.740Z,99425.63
2022-08-05T18:50:45.176Z,99427.56
2022-08-05T18:53:19.154Z,99430.03
2022-08-05T18:55:46.607Z,99427.00
2022-08-05T18:58:16.364Z,99431.78
2022-08-05T19:00:43.996Z,99443.72
2022-08-05T19:03:15.535Z,99447.91
2022-08-05T19:06:12.180Z,99455.47
2022-08-05T19:08:31.252Z,99455.56
2022-08-05T19:11:04.523Z,99464.63
2022-08-05T19:13:35.700Z,99460.41
2022-08-05T19:16:25.057Z,99472.19
2022-08-05T19:18:53.525Z,99473.69
2022-08-05T19:21:26.024Z,99479.28
2022-08-05T19:24:06.054Z,99486.56
2022-08-05T19:26:43.787Z,99494.03
2022-08-05T19:29:22.923Z,99501.75
2022-08-05T19:31:50.985Z,99495.84
2022-08-05T19:34:18.863Z,99502.94
2022-08-05T19:36:46.164Z,99508.63
2022-08-05T19:39:14.669Z,99514.09
2022-08-05T19:42:07.158Z,99517.25
2022-08-05T19:44:32.094Z,99528.44
2022-08-05T19:46:59.718Z,99544.38
2022-08-05T19:49:27.031Z,99545.94
2022-08-05T19:52:05.462Z,99559.44
2022-08-05T19:54:37.214Z,99563.91
2022-08-05T19:57:09.681Z,99574.16
2022-08-05T20:00:02.128Z,99584.28
2022-08-05T20:02:31.449Z,99594.47
2022-08-05T20:04:59.771Z,99595.69
2022-08-05T20:07:48.237Z,99603.97
2022-08-05T20:10:19.447Z,99611.69
2022-08-05T20:12:49.838Z,99601.75
2022-08-05T20:15:23.261Z,99609.59
2022-08-05T20:18:10.861Z,99613.72
2022-08-05T20:20:57.153Z,99622.78
2022-08-05T20:23:39.552Z,99624.13
2022-08-05T20:26:16.547Z,99622.59
2022-08-05T20:28:50.351Z,99617.16
2022-08-05T20:31:21.609Z,99624.53
2022-08-05T20:33:51.685Z,99628.19
2022-08-05T20:36:21.790Z,99621.56
2022-08-05T20:38:54.611Z,99617.47
2022-08-05T20:41:44.040Z,99615.38
2022-08-05T20:44:29.071Z,99616.91
2022-08-05T20:47:01.045Z,99618.41
2022-08-05T20:49:29.082Z,99624.25
2022-08-05T20:51:58.021Z,99617.50
2022-08-05T20:54:55.537Z,99617.09
2022-08-05T20:57:42.678Z,99620.19
2022-08-05T21:00:21.065Z,99624.03
2022-08-05T21:02:57.708Z,99615.22
2022-08-05T21:05:25.166Z,99614.94
2022-08-05T21:07:52.587Z,99620.31
2022-08-05T21:10:21.560Z,99617.41
2022-08-05T21:12:58.039Z,99620.16
2022-08-05T21:15:36.800Z,99615.88
2022-08-05T21:18:04.603Z,99614.13
2022-08-05T21:20:32.758Z,99623.31
2022-08-05T21:23:00.679Z,99624.38
2022-08-05T21:25:33.807Z,99628.97
2022-08-05T21:28:03.232Z,99620.19
2022-08-05T21:30:31.578Z,99613.88
2022-08-05T21:32:59.727Z,99611.19
2022-08-05T21:35:56.020Z,99620.78
2022-08-05T21:38:19.131Z,99622.47
2022-08-05T21:40:46.382Z,99627.91
2022-08-05T21:43:17.711Z,99620.16
2022-08-05T21:45:57.453Z,99630.41
2022-08-05T21:48:28.949Z,99621.78
2022-08-05T21:50:59.723Z,99622.34
2022-08-05T21:53:27.832Z,99626.00
2022-08-05T21:56:05.896Z,99627.94
2022-08-05T21:58:57.081Z,99629.13
2022-08-05T22:01:26.451Z,99633.75
2022-08-05T22:03:54.052Z,99622.94
2022-08-05T22:06:36.972Z,99638.34
2022-08-05T22:09:13.375Z,99629.50
2022-08-05T22:11:47.074Z,99633.13
2022-08-05T22:14:33.698Z,99635.19
2022-08-05T22:17:04.971Z,99635.31
2022-08-05T22:20:00.832Z,99625.88
2022-08-05T22:22:27.375Z,99624.38
2022-08-05T22:25:24.000Z,99623.69
2022-08-05T22:28:09.109Z,99617.41
2022-08-05T22:30:43.951Z,99621.88
2022-08-05T22:33:57.228Z,99619.25
2022-08-05T22:36:14.890Z,99622.94
2022-08-05T22:38:48.082Z,99617.03
2022-08-05T22:41:26.369Z,99620.22
2022-08-05T22:44:08.611Z,99619.78
2022-08-05T22:46:39.884Z,99621.94
2022-08-05T22:49:23.643Z,99621.13
2022-08-05T22:52:04.811Z,99612.28
2022-08-05T22:54:36.566Z,99616.63
2022-08-05T22:57:06.528Z,99625.81
2022-08-05T22:59:48.520Z,99623.50
2022-08-05T23:02:29.463Z,99628.16
2022-08-05T23:05:01.910Z,99626.47
2022-08-05T23:07:43.757Z,99631.00
2022-08-05T23:10:14.157Z,99630.13
2022-08-05T23:12:43.785Z,99621.72
2022-08-05T23:15:12.047Z,99626.22
2022-08-05T23:18:01.458Z,99614.50
2022-08-05T23:20:26.840Z,99621.31
2022-08-05T23:22:55.815Z,99620.50
2022-08-05T23:25:52.569Z,99619.91
2022-08-05T23:28:12.809Z,99616.13
2022-08-05T23:30:44.027Z,99618.81
2022-08-05T23:33:26.466Z,99618.28
2022-08-05T23:36:10.805Z,99621.41
2022-08-05T23:38:42.849Z,99618.94
2022-08-05T23:41:11.267Z,99626.38
2022-08-05T23:44:04.737Z,99635.41
2022-08-05T23:46:26.203Z,99645.09
2022-08-05T23:49:00.035Z,99654.13
2022-08-05T23:51:55.035Z,99650.53
2022-08-05T23:54:30.220Z,99645.78
2022-08-05T23:57:03.741Z,99641.97
